Mount Vernon, KY

4:13 AM EDT on August 27, 2016 (GMT -0400)
Denny Subdivision | | Change Station

Elev 1181 ft 37.31 °N, 84.39 °W | Updated 11 seconds ago

Clear
Clear
69.3 °F
Feels Like 69.3 °F
N
0.0
Wind Variable Wind from SE
Gusts 0.0 mph

Today
High -- | Low -- °F
--% Chance of Precip.
Yesterday
High -- | Low -- °F
Precip. -- in
Pressure 30.07 in
Visibility 8.0 miles
Clouds Clear
Dew Point 69 °F
Humidity 98%
Rainfall 0.00 in
Snow Depth Not available.
7:04 AM 8:12 PM
Waning Crescent, 26% visible
METAR KLOZ 270753Z AUTO 03003KT 8SM CLR 22/19 A3011 RMK AO2 SLP182 T02170194
Pressure 30.07 in
Visibility 8.0 miles
Clouds Clear
Dew Point 69 °F
Humidity 98%
Rainfall 0.00 in
Snow Depth Not available.
7:04 AM 8:12 PM
Waning Crescent, 26% visible
METAR KLOZ 270753Z AUTO 03003KT 8SM CLR 22/19 A3011 RMK AO2 SLP182 T02170194

10-Day Weather Forecast

Almanac

Astronomy

Aug. 27, 2016 Rise Set
Actual Time
Civil Twilight
Nautical Twilight
Astronomical Twilight
Moon
Length of Visible Light
Length of Day
Tomorrow will be .
, % of the Moon is Illuminated

Today's Extremes

State Highs State Lows

Community

WunderPhotos

Upload Photos

1,935,303 photos uploaded!

WunderBlog® & News

Nearby

Air Quality

  Air Quality AQ Index Pollutant
Not available.

Snow Depth

Station Depth Elevation

Earthquake Activity

City Distance Mag. Time & Date
Minimum magnitude displayed is 2.5.

Coastal Water Temperatures

Place Temperature

Stations

Nearby Weather Stations

Station Location Temp. Windchill Dew Point Humidity Wind Precip. Elev Updated Type
                   

Watches & Warnings

There are currently no watches in effect.